Time;durP1;ratioP1;P1;durP2;ratioP2;P2;SDS_P1;SDS_P2;PMS_P1;PMS_P2;Temp;Humidity;BMP_temperature;BMP_pressure;BME280_temperature;BME280_humidity;BME280_pressure;Samples;Min_cycle;Max_cycle;Signal;HPM_P1;HPM_P2
2022/05/07 00:01:33;;;;;;;4.07;2.73;;;10.20;98.00;;;;;;5011411;28;21143;-67
2022/05/07 00:04:02;;;;;;;2.20;1.53;;;10.10;98.00;;;;;;5011650;28;20812;-67
2022/05/07 00:06:29;;;;;;;1.70;1.50;;;10.10;98.00;;;;;;5011486;28;20455;-67
2022/05/07 00:09:00;;;;;;;1.90;1.50;;;10.20;98.00;;;;;;5011444;28;20752;-67
2022/05/07 00:11:27;;;;;;;1.60;1.20;;;10.30;98.00;;;;;;5011563;28;20484;-67
2022/05/07 00:13:54;;;;;;;1.30;1.30;;;10.40;98.00;;;;;;5011633;28;20749;-67
2022/05/07 00:19:06;;;;;;;1.70;1.17;;;10.30;98.00;;;;;;5011506;28;20444;-67
2022/05/07 00:21:33;;;;;;;1.40;1.30;;;10.10;98.00;;;;;;5011229;28;20491;-67
2022/05/07 00:24:02;;;;;;;1.73;1.50;;;10.00;98.00;;;;;;5011295;28;20456;-67
2022/05/07 00:26:30;;;;;;;1.40;1.20;;;9.90;98.00;;;;;;5010020;28;21138;-67
2022/05/07 00:28:57;;;;;;;1.87;1.30;;;9.80;98.00;;;;;;5010105;28;20861;-67
2022/05/07 00:31:24;;;;;;;1.60;1.60;;;9.70;98.00;;;;;;5010880;28;20498;-67
2022/05/07 00:33:51;;;;;;;1.50;1.50;;;9.60;98.00;;;;;;5011244;28;20466;-67
2022/05/07 00:36:19;;;;;;;1.20;1.20;;;9.50;98.00;;;;;;5009883;28;20674;-67
2022/05/07 00:38:46;;;;;;;1.87;1.23;;;9.60;98.00;;;;;;5011190;28;20456;-67
2022/05/07 00:41:13;;;;;;;1.83;1.50;;;9.70;98.00;;;;;;5011181;28;20825;-67
2022/05/07 00:43:41;;;;;;;2.13;1.43;;;9.70;98.00;;;;;;5011155;28;20463;-67
2022/05/07 00:46:09;;;;;;;3.43;1.97;;;9.60;98.00;;;;;;5011021;28;20549;-67
2022/05/07 00:48:37;;;;;;;1.60;1.30;;;9.60;98.00;;;;;;5011147;28;20464;-67
2022/05/07 00:53:52;;;;;;;1.40;1.30;;;9.60;98.00;;;;;;5011428;28;20453;-67
2022/05/07 00:56:19;;;;;;;2.50;1.60;;;9.60;98.00;;;;;;5009881;28;20468;-67
2022/05/07 00:58:46;;;;;;;2.13;1.57;;;9.40;98.00;;;;;;5010971;28;20955;-67
2022/05/07 01:01:13;;;;;;;1.20;1.10;;;9.40;98.00;;;;;;5011181;28;20504;-67
2022/05/07 01:03:40;;;;;;;3.10;1.37;;;9.20;98.00;;;;;;5010779;28;20730;-67
2022/05/07 01:06:09;;;;;;;1.20;1.10;;;9.10;98.00;;;;;;5010799;28;20474;-67
2022/05/07 01:08:37;;;;;;;1.97;1.70;;;9.10;98.00;;;;;;5011201;28;20450;-67
2022/05/07 01:11:07;;;;;;;1.57;1.50;;;9.20;98.00;;;;;;5014387;28;20823;-67
2022/05/07 01:13:34;;;;;;;1.40;1.10;;;9.30;98.00;;;;;;5014248;28;20518;-67
2022/05/07 01:16:02;;;;;;;1.73;1.47;;;9.30;98.00;;;;;;5014392;28;20513;-67
2022/05/07 01:18:30;;;;;;;1.80;1.50;;;9.40;98.00;;;;;;5014055;28;20503;-67
2022/05/07 01:20:58;;;;;;;1.90;1.90;;;9.30;98.00;;;;;;5014135;28;21022;-67
2022/05/07 01:23:27;;;;;;;1.60;1.50;;;9.20;98.00;;;;;;5013034;28;20884;-67
2022/05/07 01:25:59;;;;;;;2.23;1.70;;;9.20;98.00;;;;;;5013969;28;20484;-67
2022/05/07 01:28:27;;;;;;;1.40;1.30;;;9.30;98.00;;;;;;5013999;28;20891;-67
2022/05/07 01:30:54;;;;;;;1.27;1.23;;;9.30;98.00;;;;;;5012128;28;20453;-67
2022/05/07 01:33:21;;;;;;;2.17;1.57;;;9.10;98.00;;;;;;5013977;28;20487;-67
2022/05/07 01:35:48;;;;;;;1.33;1.30;;;9.00;98.00;;;;;;5013912;28;20509;-67
2022/05/07 01:38:16;;;;;;;1.60;1.50;;;8.80;98.00;;;;;;5013678;28;20462;-67
2022/05/07 01:40:44;;;;;;;1.87;1.53;;;8.90;98.00;;;;;;5013919;28;20455;-66
2022/05/07 01:43:11;;;;;;;6.53;2.00;;;8.80;98.00;;;;;;5013587;28;20898;-66
2022/05/07 01:45:39;;;;;;;2.57;1.93;;;8.80;98.00;;;;;;5013749;28;20459;-67
2022/05/07 01:48:13;;;;;;;2.10;1.60;;;8.70;98.00;;;;;;5013749;28;20462;-67
2022/05/07 01:50:41;;;;;;;1.60;1.50;;;8.90;98.00;;;;;;5014027;28;20456;-67
2022/05/07 01:53:10;;;;;;;1.20;1.00;;;9.00;98.00;;;;;;5012600;28;20882;-67
2022/05/07 01:55:40;;;;;;;2.03;1.80;;;8.80;98.00;;;;;;5012337;28;20451;-66
2022/05/07 01:58:08;;;;;;;1.53;1.50;;;8.80;98.00;;;;;;5013477;28;20463;-66
2022/05/07 02:00:36;;;;;;;1.40;1.30;;;8.70;98.00;;;;;;5013359;28;20455;-67
2022/05/07 02:03:03;;;;;;;1.40;1.30;;;8.70;98.00;;;;;;5013394;28;20986;-67
2022/05/07 02:05:30;;;;;;;1.67;1.57;;;8.60;98.00;;;;;;5013160;28;20459;-66
2022/05/07 02:07:58;;;;;;;1.37;1.33;;;8.70;98.00;;;;;;5013156;28;20805;-67
2022/05/07 02:10:25;;;;;;;1.40;1.37;;;8.70;98.00;;;;;;5013035;28;20494;-67
2022/05/07 02:12:53;;;;;;;2.47;1.50;;;8.60;98.00;;;;;;5012927;28;20484;-67
2022/05/07 02:15:21;;;;;;;1.60;1.43;;;8.60;98.00;;;;;;5012879;28;20463;-66
2022/05/07 02:17:48;;;;;;;1.30;1.17;;;8.50;98.00;;;;;;5013120;28;20451;-66
2022/05/07 02:20:15;;;;;;;1.50;1.30;;;8.60;98.00;;;;;;5012786;28;20462;-67
2022/05/07 02:22:44;;;;;;;1.20;1.10;;;8.80;98.00;;;;;;5012897;28;20461;-66
2022/05/07 02:25:11;;;;;;;1.30;1.10;;;9.00;98.00;;;;;;5012803;28;20485;-67
2022/05/07 02:27:38;;;;;;;2.73;1.97;;;9.00;98.00;;;;;;5012649;28;20966;-66
2022/05/07 02:30:06;;;;;;;2.53;1.30;;;8.80;98.00;;;;;;5011518;28;20455;-66
2022/05/07 02:32:35;;;;;;;2.43;1.50;;;8.80;98.00;;;;;;5011354;28;20558;-66
2022/05/07 02:35:02;;;;;;;2.00;1.77;;;8.70;98.00;;;;;;5012905;28;20449;-67
2022/05/07 02:37:29;;;;;;;1.50;1.40;;;8.70;98.00;;;;;;5012714;28;20815;-67
2022/05/07 02:39:56;;;;;;;1.50;1.20;;;8.60;98.00;;;;;;5012599;28;20463;-67
2022/05/07 02:42:36;;;;;;;2.70;1.43;;;8.60;98.00;;;;;;5012496;28;20467;-66
2022/05/07 02:45:06;;;;;;;2.07;1.80;;;8.50;98.00;;;;;;5012696;28;20482;-67
2022/05/07 02:47:35;;;;;;;1.73;1.33;;;8.30;98.00;;;;;;5012512;28;20954;-66
2022/05/07 02:50:03;;;;;;;1.53;1.33;;;8.20;98.00;;;;;;5012560;28;20545;-67
2022/05/07 02:52:32;;;;;;;2.13;1.37;;;8.30;98.00;;;;;;5012888;28;20505;-67
2022/05/07 02:55:00;;;;;;;1.37;1.37;;;8.30;98.00;;;;;;5012760;28;20462;-66
2022/05/07 02:57:31;;;;;;;2.53;2.20;;;8.30;98.00;;;;;;5012676;28;20516;-66
2022/05/07 02:59:58;;;;;;;3.87;1.67;;;8.20;98.00;;;;;;5012853;28;20839;-67
2022/05/07 03:02:25;;;;;;;2.13;1.87;;;8.10;98.00;;;;;;5010891;28;21039;-67
2022/05/07 03:05:03;;;;;;;1.40;1.30;;;8.10;98.00;;;;;;5012357;28;20460;-66
2022/05/07 03:07:30;;;;;;;1.47;1.30;;;8.00;98.00;;;;;;5012295;28;20465;-67
2022/05/07 03:09:57;;;;;;;1.50;1.43;;;8.00;98.00;;;;;;5012374;28;20466;-66
2022/05/07 03:12:24;;;;;;;3.63;2.07;;;8.00;98.00;;;;;;5011889;28;20557;-66
2022/05/07 03:14:51;;;;;;;1.30;1.00;;;8.00;98.00;;;;;;5012220;28;20454;-67
2022/05/07 03:17:18;;;;;;;2.00;1.53;;;8.00;98.00;;;;;;5011825;28;20473;-67
2022/05/07 03:19:45;;;;;;;1.43;1.30;;;8.00;98.00;;;;;;5012040;28;20449;-66
2022/05/07 03:22:14;;;;;;;1.30;1.10;;;8.00;98.00;;;;;;5011844;28;20459;-66
2022/05/07 03:24:41;;;;;;;1.63;1.40;;;7.90;98.00;;;;;;5011804;28;20458;-67
2022/05/07 03:27:08;;;;;;;1.50;1.30;;;8.10;98.00;;;;;;5011838;28;20466;-66
2022/05/07 03:29:36;;;;;;;1.60;1.33;;;8.20;98.00;;;;;;5011716;28;20455;-66
2022/05/07 03:32:05;;;;;;;1.60;1.57;;;8.30;98.00;;;;;;5011031;28;20468;-66
2022/05/07 03:34:32;;;;;;;2.70;1.50;;;8.30;98.00;;;;;;5011801;28;20474;-66
2022/05/07 03:37:02;;;;;;;2.93;1.70;;;8.10;98.00;;;;;;5011822;28;20456;-66
2022/05/07 03:39:32;;;;;;;1.30;1.30;;;7.90;98.00;;;;;;5011769;28;20461;-67
2022/05/07 03:41:59;;;;;;;2.97;1.47;;;7.80;98.00;;;;;;5011567;28;20458;-67
2022/05/07 03:44:26;;;;;;;1.30;1.23;;;7.70;98.00;;;;;;5011557;28;20873;-66
2022/05/07 03:46:53;;;;;;;2.40;1.50;;;7.70;98.00;;;;;;5011771;28;20473;-67
2022/05/07 03:49:20;;;;;;;2.33;1.60;;;7.70;98.00;;;;;;5011703;28;20670;-66
2022/05/07 03:54:33;;;;;;;2.90;1.70;;;7.70;98.00;;;;;;5010574;28;20447;-67
2022/05/07 03:57:00;;;;;;;1.67;1.57;;;7.70;98.00;;;;;;5011613;28;20529;-66
2022/05/07 03:59:27;;;;;;;1.27;1.20;;;7.70;98.00;;;;;;5010322;28;20457;-66
2022/05/07 04:01:54;;;;;;;2.13;1.60;;;7.80;98.00;;;;;;5011544;28;20872;-66
2022/05/07 04:04:21;;;;;;;2.53;1.40;;;7.80;98.00;;;;;;5011224;28;20470;-67
2022/05/07 04:06:48;;;;;;;1.47;1.43;;;7.80;98.00;;;;;;5011662;28;20512;-66
2022/05/07 04:09:15;;;;;;;3.57;1.63;;;7.70;98.00;;;;;;5010149;28;20802;-66
2022/05/07 04:11:44;;;;;;;1.67;1.63;;;7.80;98.00;;;;;;5011346;28;20463;-66
2022/05/07 04:14:11;;;;;;;1.30;1.20;;;7.80;98.00;;;;;;5011273;28;20540;-66
2022/05/07 04:16:39;;;;;;;4.50;2.40;;;7.90;98.00;;;;;;5011354;28;20963;-66
2022/05/07 04:19:06;;;;;;;2.70;1.30;;;7.90;98.00;;;;;;5010280;28;20460;-66
2022/05/07 04:21:37;;;;;;;1.50;1.40;;;8.00;98.00;;;;;;5011133;28;21652;-66
2022/05/07 04:24:05;;;;;;;1.53;1.40;;;8.10;98.00;;;;;;5011364;28;20457;-66
2022/05/07 04:26:33;;;;;;;1.87;1.23;;;8.10;98.00;;;;;;5011162;28;20463;-66
2022/05/07 04:29:01;;;;;;;2.57;1.77;;;8.10;98.00;;;;;;5011276;28;20459;-66
2022/05/07 04:31:28;;;;;;;1.60;1.43;;;8.00;98.00;;;;;;5011013;28;20836;-67
2022/05/07 04:33:56;;;;;;;2.80;1.80;;;7.90;98.00;;;;;;5010222;28;20492;-67
2022/05/07 04:36:24;;;;;;;3.00;1.40;;;7.80;98.00;;;;;;5011044;28;20459;-66
2022/05/07 04:38:56;;;;;;;1.20;1.03;;;7.80;98.00;;;;;;5011070;28;20521;-66
2022/05/07 04:41:23;;;;;;;1.47;1.43;;;7.90;98.00;;;;;;5010584;28;20462;-66
2022/05/07 04:43:50;;;;;;;1.20;1.20;;;7.90;98.00;;;;;;5012164;28;20483;-66
2022/05/07 04:46:18;;;;;;;1.93;1.73;;;8.00;98.00;;;;;;5014803;28;20876;-67
2022/05/07 04:48:46;;;;;;;3.33;1.43;;;8.00;98.00;;;;;;5013691;28;20977;-66
2022/05/07 04:51:13;;;;;;;3.00;1.37;;;7.90;98.00;;;;;;5014898;28;20538;-66
2022/05/07 04:53:40;;;;;;;1.40;1.20;;;8.00;98.00;;;;;;5014927;28;20497;-67
2022/05/07 04:56:08;;;;;;;2.27;1.67;;;8.10;98.00;;;;;;5014958;28;20462;-66
2022/05/07 04:58:34;;;;;;;3.20;1.60;;;8.30;98.00;;;;;;5012118;28;20824;-66
2022/05/07 05:01:01;;;;;;;1.30;1.13;;;8.40;98.00;;;;;;5014591;28;20455;-66
2022/05/07 05:03:30;;;;;;;2.17;1.40;;;8.60;98.00;;;;;;5014468;28;20805;-67
2022/05/07 05:05:57;;;;;;;1.77;1.57;;;8.60;98.00;;;;;;5014413;28;20477;-66
2022/05/07 05:08:24;;;;;;;1.40;1.30;;;8.50;98.00;;;;;;5014268;28;20458;-66
2022/05/07 05:10:51;;;;;;;1.40;1.27;;;8.60;98.00;;;;;;5014278;28;20469;-66
2022/05/07 05:13:19;;;;;;;2.50;1.70;;;8.60;98.00;;;;;;5013001;28;20482;-66
2022/05/07 05:15:46;;;;;;;2.90;2.00;;;8.70;98.00;;;;;;4996812;28;20458;-66
2022/05/07 05:18:14;;;;;;;1.30;1.13;;;8.80;98.00;;;;;;5014277;28;20472;-66
2022/05/07 05:20:42;;;;;;;1.87;1.40;;;8.90;98.00;;;;;;5014254;28;20512;-66
2022/05/07 05:23:10;;;;;;;1.30;1.23;;;8.90;98.00;;;;;;5012704;28;20470;-66
2022/05/07 05:25:37;;;;;;;1.93;1.53;;;9.00;98.00;;;;;;5013984;28;20499;-66
2022/05/07 05:28:04;;;;;;;1.40;1.10;;;8.90;98.00;;;;;;5012649;28;20508;-67
2022/05/07 05:30:31;;;;;;;1.60;1.50;;;8.80;98.00;;;;;;5013999;28;20603;-66
2022/05/07 05:32:59;;;;;;;1.20;1.10;;;8.70;98.00;;;;;;5013914;28;20980;-67
2022/05/07 05:35:27;;;;;;;1.40;1.27;;;8.70;98.00;;;;;;5012632;28;20462;-67
2022/05/07 05:37:55;;;;;;;1.53;1.20;;;8.70;98.00;;;;;;5013771;28;20741;-67
2022/05/07 05:40:22;;;;;;;2.50;1.70;;;8.80;98.00;;;;;;5013740;28;20988;-67
2022/05/07 05:42:49;;;;;;;1.30;1.30;;;8.90;98.00;;;;;;5013774;28;20889;-67
2022/05/07 05:45:17;;;;;;;1.27;1.20;;;9.00;98.00;;;;;;5013757;28;20472;-67
2022/05/07 05:47:44;;;;;;;2.10;1.90;;;9.20;98.00;;;;;;5013656;28;20470;-66
2022/05/07 05:50:11;;;;;;;2.27;1.43;;;9.20;98.00;;;;;;5013767;28;20456;-66
2022/05/07 05:52:38;;;;;;;2.57;1.60;;;9.40;98.00;;;;;;5013862;28;20464;-66
2022/05/07 05:55:07;;;;;;;2.63;1.73;;;9.60;98.00;;;;;;5012943;28;20459;-66
2022/05/07 05:57:35;;;;;;;2.23;1.77;;;9.70;98.00;;;;;;5013344;28;20455;-66
2022/05/07 06:00:02;;;;;;;4.30;2.13;;;9.80;98.00;;;;;;5013328;28;20465;-67
2022/05/07 06:02:29;;;;;;;1.67;1.50;;;9.90;98.00;;;;;;5013193;28;20456;-66
2022/05/07 06:04:56;;;;;;;3.47;1.80;;;9.90;98.00;;;;;;5013323;28;20459;-66
2022/05/07 06:07:23;;;;;;;1.97;1.80;;;10.00;98.00;;;;;;5012989;28;20966;-66
2022/05/07 06:09:50;;;;;;;3.10;1.80;;;10.00;98.00;;;;;;5013035;28;20965;-66
2022/05/07 06:12:19;;;;;;;3.10;2.37;;;10.20;98.00;;;;;;5013282;28;20462;-66
2022/05/07 06:14:51;;;;;;;2.83;2.20;;;10.30;98.00;;;;;;5012977;28;20490;-66
2022/05/07 06:17:18;;;;;;;4.67;1.60;;;10.40;98.00;;;;;;5013159;28;20507;-66
2022/05/07 06:19:45;;;;;;;3.77;2.57;;;10.60;98.00;;;;;;5013047;28;20459;-66
2022/05/07 06:22:12;;;;;;;1.60;1.57;;;10.70;98.00;;;;;;5012950;28;20460;-66
2022/05/07 06:27:32;;;;;;;2.73;1.77;;;10.90;98.00;;;;;;5013002;28;20443;-64
2022/05/07 06:30:00;;;;;;;4.30;2.80;;;11.10;98.00;;;;;;5013582;28;20875;-64
2022/05/07 06:32:33;;;;;;;1.77;1.40;;;11.20;98.00;;;;;;5012739;28;21023;-64
2022/05/07 06:35:03;;;;;;;1.90;1.73;;;11.30;98.00;;;;;;5012046;28;20503;-64
2022/05/07 06:37:39;;;;;;;3.70;1.90;;;11.30;98.00;;;;;;5011562;28;20466;-65
2022/05/07 06:40:07;;;;;;;1.93;1.57;;;11.40;98.00;;;;;;5012718;28;20461;-64
2022/05/07 06:42:37;;;;;;;1.90;1.57;;;11.50;98.00;;;;;;5013007;28;20468;-64
2022/05/07 06:45:05;;;;;;;2.27;1.80;;;11.60;98.00;;;;;;5011416;28;20548;-64
2022/05/07 06:47:33;;;;;;;1.90;1.50;;;11.70;98.00;;;;;;5012142;28;20468;-64
2022/05/07 06:50:00;;;;;;;2.70;2.07;;;11.80;98.00;;;;;;5012737;28;20495;-65
2022/05/07 06:52:28;;;;;;;2.57;1.77;;;11.80;98.00;;;;;;5012643;28;20555;-65
2022/05/07 06:54:55;;;;;;;2.60;1.93;;;11.90;98.00;;;;;;5012634;28;20478;-65
2022/05/07 06:57:24;;;;;;;1.77;1.67;;;12.00;98.00;;;;;;4995089;28;20449;-64
2022/05/07 06:59:53;;;;;;;1.97;1.70;;;12.20;98.00;;;;;;5012508;28;20457;-64
2022/05/07 07:02:20;;;;;;;4.10;2.10;;;12.20;98.00;;;;;;5012312;28;21076;-64
2022/05/07 07:04:47;;;;;;;4.13;2.40;;;12.30;98.00;;;;;;5010947;28;20457;-64
2022/05/07 07:07:15;;;;;;;3.00;2.33;;;12.40;98.00;;;;;;5011327;28;20514;-65
2022/05/07 07:09:42;;;;;;;3.73;2.20;;;12.50;98.00;;;;;;5012938;28;20553;-64
2022/05/07 07:12:10;;;;;;;3.13;1.73;;;12.60;98.00;;;;;;5012969;28;20465;-65
2022/05/07 07:14:39;;;;;;;1.90;1.60;;;12.70;98.00;;;;;;5010853;28;20578;-64
2022/05/07 07:17:08;;;;;;;3.17;1.97;;;12.80;98.00;;;;;;5012894;28;20458;-64
2022/05/07 07:19:35;;;;;;;2.20;1.80;;;12.90;98.00;;;;;;5011482;28;20452;-65
2022/05/07 07:22:02;;;;;;;2.13;1.77;;;12.80;98.00;;;;;;5012782;28;20466;-64
2022/05/07 07:24:29;;;;;;;2.50;1.87;;;12.90;98.00;;;;;;5012621;28;20457;-64
2022/05/07 07:26:56;;;;;;;1.87;1.77;;;13.00;98.00;;;;;;5012673;28;20480;-64
2022/05/07 07:29:25;;;;;;;3.20;2.03;;;13.20;98.00;;;;;;5012597;28;20462;-65
2022/05/07 07:31:52;;;;;;;1.87;1.80;;;13.30;98.00;;;;;;5012569;28;20481;-64
2022/05/07 07:34:21;;;;;;;1.90;1.63;;;13.50;98.00;;;;;;5012317;28;20487;-64
2022/05/07 07:36:52;;;;;;;3.50;2.40;;;13.60;98.00;;;;;;5012545;28;20797;-64
2022/05/07 07:39:20;;;;;;;3.30;2.10;;;13.70;98.00;;;;;;5012559;28;20468;-64
2022/05/07 07:41:47;;;;;;;3.13;2.30;;;13.70;98.00;;;;;;5012411;28;20463;-64
2022/05/07 07:44:14;;;;;;;3.03;2.33;;;13.90;98.00;;;;;;5011359;28;21032;-65
2022/05/07 07:49:27;;;;;;;1.90;1.63;;;14.20;98.00;;;;;;5008112;28;20851;-65
2022/05/07 07:51:55;;;;;;;1.77;1.60;;;14.20;98.00;;;;;;5009966;28;20866;-65
2022/05/07 07:54:23;;;;;;;2.07;1.90;;;14.20;98.00;;;;;;5010923;28;20488;-64
2022/05/07 07:57:07;;;;;;;3.43;2.57;;;14.30;98.00;;;;;;5012152;28;20500;-64
2022/05/07 07:59:34;;;;;;;5.67;2.30;;;14.50;98.00;;;;;;5010884;28;20471;-63
2022/05/07 08:02:01;;;;;;;3.70;2.40;;;14.80;98.00;;;;;;5012014;28;20472;-63
2022/05/07 08:04:30;;;;;;;2.73;2.00;;;15.10;98.00;;;;;;5012149;28;20463;-63
2022/05/07 08:12:26;;;;;;;3.27;1.80;;;15.40;98.00;;;;;;5012198;28;20950;-64
2022/05/07 08:14:53;;;;;;;4.00;2.60;;;15.50;98.00;;;;;;5011848;28;20585;-63
2022/05/07 08:17:20;;;;;;;3.30;2.33;;;15.70;98.00;;;;;;5012113;28;20481;-64
2022/05/07 08:19:49;;;;;;;2.83;1.70;;;15.80;98.00;;;;;;5016244;28;20499;-63
2022/05/07 08:22:16;;;;;;;3.90;2.30;;;15.90;98.00;;;;;;5016055;28;20557;-63
2022/05/07 08:24:43;;;;;;;4.23;2.27;;;16.00;98.00;;;;;;5014678;28;20473;-63
2022/05/07 08:27:10;;;;;;;2.77;2.00;;;16.10;98.00;;;;;;5015828;28;20458;-63
2022/05/07 08:29:37;;;;;;;2.30;2.10;;;16.30;98.00;;;;;;5015862;28;20871;-63
2022/05/07 08:32:05;;;;;;;2.80;1.97;;;16.60;98.00;;;;;;5015678;28;20474;-63
2022/05/07 08:34:32;;;;;;;5.20;2.33;;;16.70;98.00;;;;;;5016155;28;20938;-63
2022/05/07 08:37:01;;;;;;;2.90;2.20;;;16.70;98.00;;;;;;5015904;28;20470;-63
2022/05/07 08:39:29;;;;;;;2.70;2.17;;;16.90;98.00;;;;;;5015552;28;20539;-63
2022/05/07 08:41:59;;;;;;;5.60;2.93;;;17.10;98.00;;;;;;5015664;28;20466;-63
2022/05/07 08:44:26;;;;;;;2.53;2.10;;;17.30;98.00;;;;;;5015903;28;20965;-63
2022/05/07 08:46:53;;;;;;;4.77;2.67;;;17.40;98.00;;;;;;5015737;28;20546;-63
2022/05/07 08:49:21;;;;;;;2.77;2.20;;;17.40;98.00;;;;;;5015654;28;20459;-63
2022/05/07 08:51:50;;;;;;;3.07;2.60;;;17.50;98.00;;;;;;5015565;28;20459;-63
2022/05/07 08:54:18;;;;;;;2.77;2.33;;;17.70;98.00;;;;;;5015561;28;20497;-64
2022/05/07 08:56:45;;;;;;;6.30;2.73;;;17.80;98.00;;;;;;5015605;28;20829;-63
2022/05/07 08:59:15;;;;;;;4.17;2.23;;;17.90;98.00;;;;;;5015395;28;20459;-63
2022/05/07 09:01:43;;;;;;;3.80;2.10;;;18.00;98.00;;;;;;5015481;28;20462;-63
2022/05/07 09:04:10;;;;;;;4.03;2.90;;;18.10;98.00;;;;;;5015521;28;20462;-63
2022/05/07 09:06:38;;;;;;;4.40;2.57;;;18.20;98.00;;;;;;5014946;28;20475;-62
2022/05/07 09:09:07;;;;;;;3.60;2.53;;;18.40;98.00;;;;;;5014981;28;20815;-63
2022/05/07 09:11:43;;;;;;;3.30;2.13;;;18.50;98.00;;;;;;5015198;28;20833;-61
2022/05/07 09:14:11;;;;;;;3.77;2.23;;;18.50;98.00;;;;;;5015053;28;21152;-63
2022/05/07 09:16:42;;;;;;;4.07;2.20;;;18.40;98.00;;;;;;5015087;28;20459;-63
2022/05/07 09:19:23;;;;;;;2.47;2.00;;;18.30;98.00;;;;;;5014922;28;20563;-62
2022/05/07 09:21:50;;;;;;;4.70;2.33;;;18.20;98.00;;;;;;5013335;28;21000;-63
2022/05/07 09:24:18;;;;;;;3.80;2.97;;;18.20;98.00;;;;;;5014820;28;20467;-63
2022/05/07 09:26:50;;;;;;;2.40;1.97;;;18.10;98.00;;;;;;5014819;28;20533;-63
2022/05/07 09:29:18;;;;;;;3.03;2.03;;;18.10;98.00;;;;;;5012750;28;20825;-63
2022/05/07 09:31:46;;;;;;;3.97;2.87;;;18.20;98.00;;;;;;5014255;28;20474;-62
2022/05/07 09:36:59;;;;;;;2.40;1.87;;;18.60;94.90;;;;;;5014609;28;20984;-63
2022/05/07 09:39:33;;;;;;;3.00;2.40;;;19.00;98.00;;;;;;5013381;28;20463;-62
2022/05/07 09:42:02;;;;;;;2.50;2.00;;;19.50;94.40;;;;;;5014631;28;20491;-63
2022/05/07 09:44:29;;;;;;;3.00;1.80;;;19.90;95.30;;;;;;5014529;28;20495;-63
2022/05/07 09:46:57;;;;;;;2.30;1.90;;;20.10;91.10;;;;;;5014500;28;20522;-63
2022/05/07 09:49:27;;;;;;;3.20;1.93;;;20.40;92.30;;;;;;5014427;28;20452;-63
2022/05/07 09:51:55;;;;;;;3.07;2.10;;;20.40;87.20;;;;;;5014350;28;20456;-62
2022/05/07 09:59:57;;;;;;;2.17;1.93;;;20.80;85.60;;;;;;5014318;28;20513;-63
2022/05/07 10:02:37;;;;;;;3.17;1.80;;;21.00;85.20;;;;;;5014100;28;20540;-63
2022/05/07 10:05:27;;;;;;;2.60;1.67;;;21.10;84.70;;;;;;5014228;28;20546;-63
2022/05/07 10:08:21;;;;;;;3.37;2.07;;;21.30;87.60;;;;;;5004650;28;20797;-63
2022/05/07 10:10:53;;;;;;;2.80;1.77;;;21.50;86.10;;;;;;5014082;28;20559;-63
2022/05/07 10:13:21;;;;;;;2.03;1.70;;;21.70;84.00;;;;;;5013902;28;20826;-63
2022/05/07 10:16:00;;;;;;;2.70;2.00;;;21.90;84.00;;;;;;5013782;28;20534;-63
2022/05/07 10:18:35;;;;;;;2.70;1.57;;;22.00;83.00;;;;;;5013751;28;20558;-63
2022/05/07 10:21:12;;;;;;;3.10;2.00;;;22.00;80.70;;;;;;5013849;28;20494;-63
2022/05/07 10:23:49;;;;;;;4.13;2.00;;;22.10;78.30;;;;;;5012388;28;20458;-63
2022/05/07 10:26:17;;;;;;;2.43;1.80;;;22.10;76.40;;;;;;5013691;28;20550;-63
2022/05/07 10:28:46;;;;;;;2.43;1.97;;;22.10;78.40;;;;;;5013580;28;20451;-63
2022/05/07 10:31:20;;;;;;;1.93;1.80;;;22.10;78.20;;;;;;5013946;28;20518;-63
2022/05/07 10:33:48;;;;;;;2.90;1.60;;;22.10;79.80;;;;;;5013200;28;20471;-63
2022/05/07 10:36:16;;;;;;;2.70;1.63;;;22.30;78.40;;;;;;5013552;28;20577;-63
2022/05/07 10:38:45;;;;;;;2.00;1.60;;;22.20;77.70;;;;;;5013468;28;20463;-63
2022/05/07 10:41:24;;;;;;;1.90;1.50;;;22.30;81.40;;;;;;5012896;28;20941;-63
2022/05/07 10:44:06;;;;;;;2.40;1.83;;;22.40;79.70;;;;;;5013642;28;20815;-63
2022/05/07 10:46:43;;;;;;;3.00;1.90;;;22.60;76.60;;;;;;5013501;28;20790;-63
2022/05/07 10:49:11;;;;;;;1.80;1.40;;;22.80;76.60;;;;;;5013220;28;20942;-63
2022/05/07 10:51:50;;;;;;;2.90;2.20;;;23.20;79.00;;;;;;5013384;28;20459;-63
2022/05/07 10:54:19;;;;;;;2.97;1.70;;;23.50;79.20;;;;;;5013383;28;20541;-63
2022/05/07 10:56:49;;;;;;;1.83;1.63;;;23.70;75.90;;;;;;5013567;28;20961;-63
2022/05/07 10:59:18;;;;;;;1.83;1.80;;;23.70;75.40;;;;;;5013135;28;20472;-63
2022/05/07 11:01:45;;;;;;;1.97;1.80;;;23.60;73.80;;;;;;5013114;28;20822;-63
2022/05/07 11:04:14;;;;;;;2.73;1.80;;;23.80;75.80;;;;;;5012816;28;20470;-63
2022/05/07 11:06:50;;;;;;;3.00;1.93;;;24.10;74.40;;;;;;5012893;28;20463;-63
2022/05/07 11:09:19;;;;;;;2.30;1.77;;;24.30;74.30;;;;;;5012721;28;20483;-63
2022/05/07 11:11:47;;;;;;;1.87;1.77;;;24.50;74.60;;;;;;5013008;28;20462;-63
2022/05/07 11:14:24;;;;;;;3.53;2.30;;;24.50;73.80;;;;;;5012482;28;20841;-63
2022/05/07 11:16:51;;;;;;;1.80;1.70;;;24.40;72.00;;;;;;5012702;28;20546;-63
2022/05/07 11:19:26;;;;;;;2.27;1.80;;;24.50;72.50;;;;;;5012534;28;20793;-63
2022/05/07 11:21:53;;;;;;;2.40;2.00;;;24.50;74.80;;;;;;5012495;28;20954;-63
2022/05/07 11:24:25;;;;;;;2.53;1.87;;;24.70;71.70;;;;;;5012612;28;20547;-63
2022/05/07 11:26:53;;;;;;;2.10;1.70;;;25.10;75.10;;;;;;5012812;28;20957;-63
2022/05/07 11:29:22;;;;;;;2.43;2.17;;;24.90;72.30;;;;;;5011338;28;20468;-63
2022/05/07 11:31:56;;;;;;;2.00;1.60;;;25.10;73.80;;;;;;5012483;28;20467;-62
2022/05/07 11:34:33;;;;;;;2.50;1.90;;;25.00;69.10;;;;;;5012501;28;20463;-63
2022/05/07 11:37:19;;;;;;;2.60;2.10;;;25.00;71.40;;;;;;5011818;28;20868;-63
2022/05/07 11:39:53;;;;;;;2.17;1.70;;;24.70;73.60;;;;;;5011775;28;20502;-63
2022/05/07 11:42:29;;;;;;;2.30;1.67;;;24.20;72.70;;;;;;5011865;28;20529;-63
2022/05/07 11:47:53;;;;;;;2.67;1.90;;;23.90;70.90;;;;;;5011610;28;20534;-63
2022/05/07 11:50:24;;;;;;;1.70;1.67;;;23.40;71.10;;;;;;5010133;28;20459;-63
2022/05/07 11:52:55;;;;;;;3.00;2.13;;;23.30;72.20;;;;;;5011181;28;20460;-63
2022/05/07 11:55:27;;;;;;;2.37;2.13;;;23.20;71.80;;;;;;5011695;28;20484;-63
2022/05/07 11:57:55;;;;;;;2.30;1.93;;;23.10;75.10;;;;;;5010647;28;20482;-62
2022/05/07 12:00:25;;;;;;;3.57;2.03;;;22.90;74.40;;;;;;5011522;28;20942;-62
2022/05/07 12:02:57;;;;;;;2.70;2.33;;;22.80;74.40;;;;;;5011630;28;20459;-63
2022/05/07 12:05:26;;;;;;;2.03;1.63;;;22.80;75.70;;;;;;5011635;28;20448;-63
2022/05/07 12:07:54;;;;;;;2.33;1.87;;;22.90;73.80;;;;;;5011278;28;20949;-63
2022/05/07 12:10:30;;;;;;;2.43;1.90;;;23.10;76.20;;;;;;5011411;28;20462;-63
2022/05/07 12:12:59;;;;;;;1.60;1.60;;;23.30;75.30;;;;;;5011308;28;20980;-63
2022/05/07 12:18:16;;;;;;;2.07;1.50;;;22.90;74.10;;;;;;4985494;28;20533;-63
2022/05/07 12:20:43;;;;;;;1.90;1.80;;;22.80;75.50;;;;;;5011557;28;20843;-63
2022/05/07 12:31:25;;;;;;;2.50;1.93;;;23.40;71.50;;;;;;5011086;28;20459;-64
2022/05/07 12:33:52;;;;;;;3.37;2.40;;;23.20;71.40;;;;;;5011152;28;20458;-63
2022/05/07 12:36:19;;;;;;;3.37;2.53;;;23.60;74.50;;;;;;5011044;28;20484;-63
2022/05/07 12:38:48;;;;;;;2.83;1.93;;;23.80;72.10;;;;;;5011230;28;20510;-63
2022/05/07 12:41:15;;;;;;;2.50;1.80;;;23.90;73.40;;;;;;5011129;28;20463;-63
2022/05/07 12:43:44;;;;;;;3.83;2.27;;;24.00;73.40;;;;;;5011088;28;20525;-63
2022/05/07 12:46:11;;;;;;;1.97;1.70;;;23.90;69.70;;;;;;5011033;28;20470;-63
2022/05/07 12:48:42;;;;;;;2.90;2.10;;;23.80;70.80;;;;;;5010973;28;20455;-63
2022/05/07 12:51:09;;;;;;;6.13;2.37;;;23.70;73.50;;;;;;5011094;28;20469;-63
2022/05/07 12:53:36;;;;;;;2.20;1.67;;;23.50;73.40;;;;;;5010209;28;21092;-63
2022/05/07 12:56:04;;;;;;;2.10;1.90;;;23.40;75.60;;;;;;5011237;28;20494;-63
2022/05/07 12:58:31;;;;;;;2.53;1.80;;;23.20;75.80;;;;;;5010165;28;20537;-63
2022/05/07 13:00:58;;;;;;;3.93;2.37;;;22.90;76.20;;;;;;5011431;28;20830;-64
2022/05/07 13:03:25;;;;;;;3.20;2.00;;;22.50;77.60;;;;;;5010881;28;20455;-63
2022/05/07 13:05:53;;;;;;;2.20;1.70;;;22.20;76.80;;;;;;5014470;28;20957;-63
2022/05/07 13:08:20;;;;;;;2.63;2.30;;;22.30;78.60;;;;;;5014204;28;20448;-63
2022/05/07 13:10:48;;;;;;;3.00;2.07;;;22.50;74.90;;;;;;5013122;28;20448;-63
2022/05/07 13:13:18;;;;;;;3.00;2.30;;;22.70;73.30;;;;;;5014202;28;20522;-63
2022/05/07 13:15:45;;;;;;;2.00;1.80;;;22.90;74.80;;;;;;5014581;28;21001;-63
2022/05/07 13:18:12;;;;;;;2.37;1.90;;;23.10;76.40;;;;;;5014382;28;20466;-63
2022/05/07 13:20:39;;;;;;;3.10;1.90;;;23.40;75.70;;;;;;5014401;28;20517;-63
2022/05/07 13:23:08;;;;;;;2.77;2.30;;;23.60;74.50;;;;;;5014193;28;20482;-63
2022/05/07 13:25:35;;;;;;;4.13;2.47;;;23.70;75.40;;;;;;5014247;28;20463;-63
2022/05/07 13:28:02;;;;;;;3.00;2.10;;;23.90;73.80;;;;;;5014212;28;20456;-63
2022/05/07 13:30:30;;;;;;;2.77;2.10;;;24.10;74.20;;;;;;5014038;28;20826;-63
2022/05/07 13:32:58;;;;;;;3.37;2.53;;;24.40;74.60;;;;;;5014112;28;20463;-63
2022/05/07 13:35:25;;;;;;;4.80;2.50;;;24.40;72.80;;;;;;5013879;28;20495;-62
2022/05/07 13:37:52;;;;;;;3.10;2.60;;;24.70;73.50;;;;;;5013857;28;20475;-63
2022/05/07 13:40:21;;;;;;;3.20;2.10;;;25.10;75.10;;;;;;5013859;28;20478;-63